createdAt,value
2017-12-10T00:02:18.689Z,97136.42
2017-12-10T00:04:47.733Z,97138.10
2017-12-10T00:07:16.016Z,97129.26
2017-12-10T00:09:44.309Z,97119.02
2017-12-10T00:12:12.613Z,97124.47
2017-12-10T00:14:41.028Z,97116.00
2017-12-10T00:17:09.296Z,97123.73
2017-12-10T00:19:37.582Z,97117.88
2017-12-10T00:22:05.909Z,97100.64
2017-12-10T00:24:34.204Z,97105.31
2017-12-10T00:27:03.320Z,97104.78
2017-12-10T00:29:31.620Z,97103.69
2017-12-10T00:31:59.918Z,97100.20
2017-12-10T00:34:28.192Z,97102.00
2017-12-10T00:36:57.954Z,97096.49
2017-12-10T00:39:26.251Z,97088.30
2017-12-10T00:41:54.836Z,97080.69
2017-12-10T00:44:23.112Z,97075.58
2017-12-10T00:46:51.388Z,97068.42
2017-12-10T00:49:19.665Z,97063.06
2017-12-10T00:51:47.964Z,97055.46
2017-12-10T00:54:16.296Z,97048.89
2017-12-10T00:56:44.588Z,97050.09
2017-12-10T00:59:12.872Z,97042.91
2017-12-10T01:01:41.157Z,97036.33
2017-12-10T01:04:09.434Z,97030.91
2017-12-10T01:06:37.715Z,97033.91
2017-12-10T01:09:06.018Z,97018.81
2017-12-10T01:11:34.332Z,97011.20
2017-12-10T01:14:05.173Z,97007.05
2017-12-10T01:16:33.465Z,97007.55
2017-12-10T01:19:01.844Z,97006.30
2017-12-10T01:21:30.130Z,96999.52
2017-12-10T01:23:58.418Z,97006.81
2017-12-10T01:26:26.712Z,97001.66
2017-12-10T01:28:55.078Z,97002.04
2017-12-10T01:31:23.348Z,96988.71
2017-12-10T01:33:51.612Z,96997.05
2017-12-10T01:36:19.897Z,96993.11
2017-12-10T01:38:48.189Z,96989.86
2017-12-10T01:41:16.481Z,96986.92
2017-12-10T01:43:44.769Z,96985.61
2017-12-10T01:46:13.065Z,96986.77
2017-12-10T01:48:41.433Z,96978.50
2017-12-10T01:51:10.475Z,96975.98
2017-12-10T01:53:38.768Z,96970.62
2017-12-10T01:56:07.060Z,96963.89
2017-12-10T01:58:35.396Z,96962.22
2017-12-10T02:01:03.688Z,96953.38
2017-12-10T02:03:31.976Z,96956.89
2017-12-10T02:06:00.257Z,96956.61
2017-12-10T02:08:28.558Z,96945.63
2017-12-10T02:10:57.607Z,96949.69
2017-12-10T02:13:25.904Z,96941.97
2017-12-10T02:15:54.190Z,96935.75
2017-12-10T02:18:22.487Z,96934.41
2017-12-10T02:20:51.549Z,96930.23
2017-12-10T02:23:20.001Z,96930.15
2017-12-10T02:25:48.296Z,96917.66
2017-12-10T02:28:16.583Z,96916.44
2017-12-10T02:30:44.857Z,96907.60
2017-12-10T02:33:17.704Z,96900.83
2017-12-10T02:35:45.985Z,96896.58
2017-12-10T02:38:14.260Z,96891.15
2017-12-10T02:40:42.532Z,96886.86
2017-12-10T02:43:11.232Z,96873.44
2017-12-10T02:45:39.523Z,96871.26
2017-12-10T02:48:07.801Z,96867.51
2017-12-10T02:50:36.089Z,96869.95
2017-12-10T02:53:04.379Z,96871.60
2017-12-10T02:55:36.517Z,96861.37
2017-12-10T02:58:04.838Z,96858.05
2017-12-10T03:00:33.988Z,96843.59
2017-12-10T03:03:02.275Z,96835.64
2017-12-10T03:05:30.569Z,96821.64
2017-12-10T03:07:58.852Z,96821.80
2017-12-10T03:10:28.768Z,96817.56
2017-12-10T03:12:57.081Z,96813.78
2017-12-10T03:15:25.369Z,96804.52
2017-12-10T03:17:53.651Z,96804.48
2017-12-10T03:20:21.945Z,96803.98
2017-12-10T03:22:50.229Z,96798.59
2017-12-10T03:25:18.524Z,96797.76
2017-12-10T03:27:46.803Z,96785.14
2017-12-10T03:30:15.086Z,96775.05
2017-12-10T03:32:44.138Z,96773.37
2017-12-10T03:35:12.423Z,96771.19
2017-12-10T03:37:40.708Z,96755.55
2017-12-10T03:40:08.980Z,96763.92
2017-12-10T03:42:37.269Z,96761.02
2017-12-10T03:45:05.544Z,96753.03
2017-12-10T03:47:33.828Z,96751.34
2017-12-10T03:50:02.119Z,96738.20
2017-12-10T03:52:31.194Z,96728.88
2017-12-10T03:54:59.544Z,96721.19
2017-12-10T03:57:33.097Z,96716.69
2017-12-10T04:00:01.375Z,96714.20
2017-12-10T04:02:29.656Z,96706.26
2017-12-10T04:04:57.952Z,96705.92
2017-12-10T04:07:26.241Z,96696.59
2017-12-10T04:09:54.530Z,96696.44
2017-12-10T04:12:22.812Z,96681.77
2017-12-10T04:14:51.101Z,96684.30
2017-12-10T04:17:19.392Z,96675.43
2017-12-10T04:19:48.436Z,96666.57
2017-12-10T04:22:16.743Z,96665.42
2017-12-10T04:24:45.033Z,96646.02
2017-12-10T04:27:13.312Z,96639.78
2017-12-10T04:29:41.602Z,96643.25
2017-12-10T04:32:10.661Z,96635.23
2017-12-10T04:34:38.948Z,96630.16
2017-12-10T04:37:07.236Z,96633.16
2017-12-10T04:39:35.530Z,96622.20
2017-12-10T04:42:04.565Z,96618.33
2017-12-10T04:44:32.849Z,96620.81
2017-12-10T04:47:01.136Z,96617.90
2017-12-10T04:49:29.413Z,96614.16
2017-12-10T04:51:57.693Z,96605.72
2017-12-10T04:54:25.990Z,96601.09
2017-12-10T04:56:55.059Z,96603.65
2017-12-10T04:59:23.338Z,96604.03
2017-12-10T05:01:51.632Z,96590.10
2017-12-10T05:04:19.934Z,96585.55
2017-12-10T05:06:48.227Z,96582.96
2017-12-10T05:09:16.560Z,96583.45
2017-12-10T05:11:46.085Z,96574.62
2017-12-10T05:14:14.368Z,96567.12
2017-12-10T05:16:42.657Z,96557.06
2017-12-10T05:19:10.941Z,96545.23
2017-12-10T05:21:39.224Z,96526.41
2017-12-10T05:24:07.513Z,96515.48
2017-12-10T05:26:35.790Z,96512.07
2017-12-10T05:29:04.068Z,96511.98
2017-12-10T05:31:32.353Z,96508.93
2017-12-10T05:34:00.648Z,96514.03
2017-12-10T05:36:28.945Z,96517.42
2017-12-10T05:38:57.231Z,96501.36
2017-12-10T05:41:25.520Z,96495.94
2017-12-10T05:43:53.805Z,96488.48
2017-12-10T05:46:22.089Z,96489.38
2017-12-10T05:48:50.367Z,96479.70
2017-12-10T05:51:18.646Z,96476.87
2017-12-10T05:53:46.929Z,96466.82
2017-12-10T05:56:15.214Z,96454.19
2017-12-10T05:58:43.492Z,96445.38
2017-12-10T06:01:12.654Z,96428.62
2017-12-10T06:03:41.675Z,96415.59
2017-12-10T06:06:09.967Z,96407.16
2017-12-10T06:08:38.240Z,96399.53
2017-12-10T06:11:06.572Z,96390.75
2017-12-10T06:13:34.867Z,96383.59
2017-12-10T06:16:04.024Z,96381.88
2017-12-10T06:18:33.072Z,96369.30
2017-12-10T06:21:01.352Z,96364.26
2017-12-10T06:23:29.644Z,96351.63
2017-12-10T06:25:57.937Z,96351.62
2017-12-10T06:28:26.216Z,96345.72
2017-12-10T06:30:55.316Z,96321.37
2017-12-10T06:33:23.612Z,96312.11
2017-12-10T06:35:51.900Z,96313.80
2017-12-10T06:38:20.175Z,96307.91
2017-12-10T06:40:48.455Z,96294.47
2017-12-10T06:43:16.729Z,96290.27
2017-12-10T06:45:45.006Z,96289.39
2017-12-10T06:48:14.094Z,96274.28
2017-12-10T06:50:42.376Z,96272.58
2017-12-10T06:53:10.656Z,96270.03
2017-12-10T06:55:38.932Z,96270.88
2017-12-10T06:58:07.219Z,96259.95
2017-12-10T07:00:35.501Z,96254.94
2017-12-10T07:03:03.790Z,96247.36
2017-12-10T07:05:32.064Z,96244.48
2017-12-10T07:08:00.349Z,96233.53
2017-12-10T07:10:28.637Z,96224.28
2017-12-10T07:12:56.916Z,96222.17
2017-12-10T07:15:25.225Z,96221.76
2017-12-10T07:17:54.480Z,96223.85
2017-12-10T07:20:22.778Z,96222.17
2017-12-10T07:22:51.843Z,96215.01
2017-12-10T07:25:20.129Z,96209.52
2017-12-10T07:27:48.436Z,96217.51
2017-12-10T07:30:16.717Z,96212.44
2017-12-10T07:32:44.996Z,96216.17
2017-12-10T07:35:13.312Z,96217.05
2017-12-10T07:37:41.599Z,96204.05
2017-12-10T07:40:09.881Z,96201.08
2017-12-10T07:42:38.173Z,96187.60
2017-12-10T07:45:06.462Z,96184.27
2017-12-10T07:47:34.773Z,96170.43
2017-12-10T07:50:03.061Z,96170.86
2017-12-10T07:52:31.336Z,96160.77
2017-12-10T07:54:59.621Z,96150.25
2017-12-10T07:57:27.903Z,96132.19
2017-12-10T07:59:56.185Z,96114.96
2017-12-10T08:02:24.468Z,96107.41
2017-12-10T08:04:52.767Z,96103.63
2017-12-10T08:07:21.044Z,96090.59
2017-12-10T08:09:50.108Z,96089.77
2017-12-10T08:12:18.408Z,96077.15
2017-12-10T08:14:47.488Z,96065.36
2017-12-10T08:17:15.780Z,96054.44
2017-12-10T08:19:44.090Z,96052.37
2017-12-10T08:22:12.905Z,96038.05
2017-12-10T08:24:41.576Z,96027.94
2017-12-10T08:27:09.866Z,96022.46
2017-12-10T08:29:38.141Z,96015.34
2017-12-10T08:32:06.417Z,96011.09
2017-12-10T08:34:34.701Z,96000.13
2017-12-10T08:37:02.989Z,95981.60
2017-12-10T08:39:31.303Z,95979.02
2017-12-10T08:42:00.093Z,95964.76
2017-12-10T08:44:28.393Z,95960.98
2017-12-10T08:46:56.695Z,95946.22
2017-12-10T08:49:25.025Z,95932.49
2017-12-10T08:51:54.072Z,95935.00
2017-12-10T08:54:22.354Z,95929.58
2017-12-10T08:56:50.640Z,95919.00
2017-12-10T08:59:18.935Z,95914.42
2017-12-10T09:01:47.212Z,95900.11
2017-12-10T09:04:15.531Z,95896.73
2017-12-10T09:06:44.900Z,95879.48
2017-12-10T09:09:13.949Z,95858.45
2017-12-10T09:11:42.241Z,95852.95
2017-12-10T09:14:10.523Z,95837.86
2017-12-10T09:16:39.741Z,95837.02
2017-12-10T09:19:08.027Z,95820.19
2017-12-10T09:21:37.069Z,95803.70
2017-12-10T09:24:05.342Z,95792.82
2017-12-10T09:26:33.632Z,95785.57
2017-12-10T09:29:01.943Z,95776.34
2017-12-10T09:31:30.220Z,95763.76
2017-12-10T09:33:59.499Z,95758.24
2017-12-10T09:36:27.988Z,95755.03
2017-12-10T09:38:56.291Z,95733.16
2017-12-10T09:41:25.398Z,95713.32
2017-12-10T09:43:56.041Z,95702.05
2017-12-10T09:46:24.865Z,95694.41
2017-12-10T09:48:54.757Z,95662.67
2017-12-10T09:51:23.065Z,95663.34
2017-12-10T09:53:51.357Z,95641.60
2017-12-10T09:56:19.662Z,95631.05
2017-12-10T09:58:48.015Z,95620.59
2017-12-10T10:01:16.889Z,95619.80
2017-12-10T10:03:45.194Z,95613.54
2017-12-10T10:06:13.501Z,95600.41
2017-12-10T10:08:41.892Z,95594.97
2017-12-10T10:11:10.206Z,95585.67
2017-12-10T10:13:38.474Z,95568.39
2017-12-10T10:16:06.871Z,95534.36
2017-12-10T10:18:35.903Z,95530.64
2017-12-10T10:21:04.170Z,95514.61
2017-12-10T10:23:32.440Z,95491.45
2017-12-10T10:26:00.738Z,95472.03
2017-12-10T10:28:29.028Z,95460.54
2017-12-10T10:30:57.357Z,95454.61
2017-12-10T10:33:25.640Z,95445.28
2017-12-10T10:35:53.929Z,95428.48
2017-12-10T10:38:22.216Z,95422.94
2017-12-10T10:40:50.508Z,95410.85
2017-12-10T10:43:18.816Z,95397.82
2017-12-10T10:45:47.928Z,95382.42
2017-12-10T10:48:16.316Z,95373.28
2017-12-10T10:50:44.642Z,95362.38
2017-12-10T10:53:12.945Z,95357.56
2017-12-10T10:55:41.231Z,95318.62
2017-12-10T10:58:10.399Z,95329.27
2017-12-10T11:00:39.736Z,95313.94
2017-12-10T11:03:08.081Z,95296.30
2017-12-10T11:05:36.412Z,95275.77
2017-12-10T11:08:04.759Z,95272.68
2017-12-10T11:10:33.064Z,95257.59
2017-12-10T11:13:01.391Z,95251.45
2017-12-10T11:15:29.753Z,95234.50
2017-12-10T11:17:58.986Z,95216.78
2017-12-10T11:20:27.348Z,95212.16
2017-12-10T11:22:55.628Z,95198.23
2017-12-10T11:25:24.224Z,95188.41
2017-12-10T11:27:52.605Z,95179.47
2017-12-10T11:30:21.940Z,95168.93
2017-12-10T11:32:50.245Z,95153.66
2017-12-10T11:35:18.618Z,95136.38
2017-12-10T11:37:46.892Z,95116.63
2017-12-10T11:40:15.181Z,95098.57
2017-12-10T11:42:43.500Z,95074.34
2017-12-10T11:45:12.610Z,95051.73
2017-12-10T11:47:40.973Z,95027.36
2017-12-10T11:50:09.286Z,95020.41
2017-12-10T11:52:37.593Z,95001.11
2017-12-10T11:55:05.906Z,95006.91
2017-12-10T11:57:35.028Z,94997.34
2017-12-10T12:00:03.333Z,94995.09
2017-12-10T12:02:31.864Z,94980.72
2017-12-10T12:05:00.212Z,94967.33
2017-12-10T12:07:28.744Z,94974.73
2017-12-10T12:09:57.297Z,94969.53
2017-12-10T12:12:26.038Z,94971.24
2017-12-10T12:14:54.712Z,94962.55
2017-12-10T12:17:23.113Z,94965.84
2017-12-10T12:19:51.433Z,94964.00
2017-12-10T12:22:19.730Z,94966.95
2017-12-10T12:24:48.110Z,94954.47
2017-12-10T12:27:16.421Z,94922.30
2017-12-10T12:29:44.810Z,94905.91
2017-12-10T12:32:13.548Z,94879.19
2017-12-10T12:34:42.516Z,94857.13
2017-12-10T12:37:11.812Z,94830.63
2017-12-10T12:39:40.965Z,94816.05
2017-12-10T12:42:09.387Z,94809.33
2017-12-10T12:44:37.692Z,94863.72
2017-12-10T12:47:06.036Z,94880.16
2017-12-10T12:49:34.346Z,94883.38
2017-12-10T12:52:02.655Z,94856.51
2017-12-10T12:54:31.075Z,94837.77
2017-12-10T12:56:59.569Z,94826.36
2017-12-10T12:59:27.956Z,94805.83
2017-12-10T13:01:56.346Z,94813.06
2017-12-10T13:04:24.830Z,94806.08
2017-12-10T13:06:53.164Z,94779.63
2017-12-10T13:09:21.445Z,94774.21
2017-12-10T13:11:49.862Z,94781.41
2017-12-10T13:14:18.176Z,94770.58
2017-12-10T13:16:46.901Z,94765.05
2017-12-10T13:19:15.294Z,94764.28
2017-12-10T13:21:43.606Z,94745.29
2017-12-10T13:24:12.033Z,94745.06
2017-12-10T13:26:40.396Z,94744.17
2017-12-10T13:29:08.975Z,94730.36
2017-12-10T13:31:38.078Z,94721.28
2017-12-10T13:34:06.361Z,94721.10
2017-12-10T13:36:35.529Z,94720.73
2017-12-10T13:39:04.930Z,94722.36
2017-12-10T13:41:33.611Z,94730.58
2017-12-10T13:44:02.026Z,94718.77
2017-12-10T13:46:31.154Z,94711.24
2017-12-10T13:48:59.480Z,94707.62
2017-12-10T13:51:27.824Z,94709.89
2017-12-10T13:53:56.948Z,94704.88
2017-12-10T13:56:25.387Z,94696.80
2017-12-10T13:58:54.628Z,94682.84
2017-12-10T14:01:23.882Z,94653.23
2017-12-10T14:03:52.174Z,94655.98
2017-12-10T14:06:20.460Z,94672.48
2017-12-10T14:08:48.921Z,94658.79
2017-12-10T14:11:17.320Z,94652.59
2017-12-10T14:13:45.857Z,94650.95
2017-12-10T14:16:14.352Z,94652.05
2017-12-10T14:18:43.631Z,94647.17
2017-12-10T14:21:12.277Z,94640.91
2017-12-10T14:23:41.462Z,94630.89
2017-12-10T14:26:10.270Z,94626.05
2017-12-10T14:28:39.930Z,94623.39
2017-12-10T14:31:08.240Z,94624.09
2017-12-10T14:33:37.002Z,94623.02
2017-12-10T14:36:05.469Z,94620.16
2017-12-10T14:38:33.915Z,94618.55
2017-12-10T14:41:02.748Z,94620.19
2017-12-10T14:43:31.552Z,94608.91
2017-12-10T14:46:00.310Z,94596.35
2017-12-10T14:48:28.942Z,94591.03
2017-12-10T14:50:57.601Z,94579.84
2017-12-10T14:53:26.209Z,94574.39
2017-12-10T14:55:54.544Z,94526.28
2017-12-10T14:58:23.288Z,94557.17
2017-12-10T15:00:51.650Z,94557.75
2017-12-10T15:03:20.224Z,94550.95
2017-12-10T15:05:48.621Z,94545.38
2017-12-10T15:08:18.087Z,94545.34
2017-12-10T15:10:46.631Z,94530.32
2017-12-10T15:13:15.290Z,94530.72
2017-12-10T15:15:43.642Z,94523.97
2017-12-10T15:18:12.042Z,94524.92
2017-12-10T15:20:40.519Z,94525.38
2017-12-10T15:23:08.874Z,94510.23
2017-12-10T15:25:37.173Z,94519.41
2017-12-10T15:28:05.465Z,94519.65
2017-12-10T15:30:33.820Z,94524.69
2017-12-10T15:33:02.174Z,94517.56
2017-12-10T15:35:30.487Z,94514.07
2017-12-10T15:37:58.769Z,94519.27
2017-12-10T15:40:27.067Z,94510.95
2017-12-10T15:42:55.354Z,94511.02
2017-12-10T15:45:24.322Z,94505.41
2017-12-10T15:47:52.600Z,94499.66
2017-12-10T15:50:21.167Z,94496.54
2017-12-10T15:52:49.822Z,94495.74
2017-12-10T15:55:18.229Z,94483.63
2017-12-10T15:57:46.724Z,94473.93
2017-12-10T16:00:15.590Z,94463.27
2017-12-10T16:02:44.889Z,94470.57
2017-12-10T16:05:13.450Z,94460.78
2017-12-10T16:07:41.913Z,94457.98
2017-12-10T16:10:10.337Z,94456.30
2017-12-10T16:12:38.903Z,94447.46
2017-12-10T16:15:07.439Z,94456.96
2017-12-10T16:17:36.357Z,94452.11
2017-12-10T16:20:05.439Z,94449.12
2017-12-10T16:22:34.564Z,94452.49
2017-12-10T16:25:05.115Z,94448.86
2017-12-10T16:27:34.798Z,94447.28
2017-12-10T16:30:04.581Z,94442.68
2017-12-10T16:32:34.389Z,94447.23
2017-12-10T16:35:04.247Z,94449.30
2017-12-10T16:37:34.440Z,94457.83
2017-12-10T16:40:04.332Z,94450.00
2017-12-10T16:42:34.224Z,94452.81
2017-12-10T16:45:04.426Z,94458.53
2017-12-10T16:47:34.438Z,94451.39
2017-12-10T16:50:04.277Z,94452.95
2017-12-10T16:52:34.335Z,94453.52
2017-12-10T16:55:05.780Z,94458.30
2017-12-10T16:57:35.798Z,94451.64
2017-12-10T17:00:05.958Z,94445.13
2017-12-10T17:02:36.066Z,94444.30
2017-12-10T17:05:06.098Z,94446.36
2017-12-10T17:07:36.175Z,94451.91
2017-12-10T17:10:06.189Z,94446.17
2017-12-10T17:12:36.057Z,94453.31
2017-12-10T17:15:07.282Z,94449.45
2017-12-10T17:17:37.332Z,94450.99
2017-12-10T17:20:07.151Z,94458.88
2017-12-10T17:22:37.150Z,94455.31
2017-12-10T17:25:07.162Z,94469.28
2017-12-10T17:27:37.054Z,94465.53
2017-12-10T17:30:06.886Z,94458.71
2017-12-10T17:32:36.935Z,94469.64
2017-12-10T17:35:07.140Z,94467.77
2017-12-10T17:37:37.166Z,94462.26
2017-12-10T17:40:07.081Z,94461.00
2017-12-10T17:42:36.946Z,94473.19
2017-12-10T17:45:07.807Z,94475.02
2017-12-10T17:47:37.794Z,94472.06
2017-12-10T17:50:07.774Z,94465.11
2017-12-10T17:52:38.453Z,94466.70
2017-12-10T17:55:08.572Z,94469.28
2017-12-10T17:57:38.504Z,94462.15
2017-12-10T18:00:08.827Z,94457.14
2017-12-10T18:02:40.648Z,94446.66
2017-12-10T18:05:12.411Z,94444.73
2017-12-10T18:07:42.474Z,94452.47
2017-12-10T18:10:12.663Z,94444.20
2017-12-10T18:12:42.652Z,94446.49
2017-12-10T18:15:12.667Z,94453.27
2017-12-10T18:17:42.759Z,94454.73
2017-12-10T18:20:13.467Z,94453.09
2017-12-10T18:22:43.595Z,94450.64
2017-12-10T18:25:13.667Z,94446.81
2017-12-10T18:27:43.614Z,94445.37
2017-12-10T18:30:13.772Z,94447.71
2017-12-10T18:32:43.903Z,94443.86
2017-12-10T18:35:14.269Z,94448.94
2017-12-10T18:37:44.486Z,94453.61
2017-12-10T18:40:14.580Z,94445.44
2017-12-10T18:42:44.583Z,94448.75
2017-12-10T18:45:14.607Z,94440.32
2017-12-10T18:47:44.568Z,94445.98
2017-12-10T18:50:14.982Z,94439.88
2017-12-10T18:52:44.910Z,94453.75
2017-12-10T18:55:14.959Z,94444.84
2017-12-10T18:57:45.868Z,94444.52
2017-12-10T19:00:16.035Z,94451.69
2017-12-10T19:02:46.744Z,94447.25
2017-12-10T19:05:16.903Z,94436.87
2017-12-10T19:07:46.792Z,94448.90
2017-12-10T19:10:17.729Z,94461.69
2017-12-10T19:12:47.812Z,94455.88
2017-12-10T19:15:17.715Z,94456.77
2017-12-10T19:17:47.681Z,94460.87
2017-12-10T19:20:17.846Z,94461.81
2017-12-10T19:22:47.980Z,94462.87
2017-12-10T19:25:18.041Z,94464.98
2017-12-10T19:27:47.970Z,94453.46
2017-12-10T19:30:18.017Z,94436.00
2017-12-10T19:32:49.800Z,94430.88
2017-12-10T19:35:19.965Z,94436.17
2017-12-10T19:37:49.939Z,94433.03
2017-12-10T19:40:19.950Z,94436.11
2017-12-10T19:42:49.872Z,94430.78
2017-12-10T19:45:19.919Z,94424.80
2017-12-10T19:47:49.919Z,94423.98
2017-12-10T19:50:19.996Z,94418.88
2017-12-10T19:52:50.114Z,94426.97
2017-12-10T19:55:20.161Z,94432.90
2017-12-10T19:57:50.299Z,94432.92
2017-12-10T20:00:20.827Z,94427.08
2017-12-10T20:02:51.542Z,94429.34
2017-12-10T20:05:21.674Z,94416.84
2017-12-10T20:07:52.410Z,94415.91
2017-12-10T20:10:22.488Z,94420.47
2017-12-10T20:12:53.452Z,94414.03
2017-12-10T20:15:23.439Z,94407.25
2017-12-10T20:17:53.386Z,94421.44
2017-12-10T20:20:23.405Z,94417.34
2017-12-10T20:22:55.212Z,94414.30
2017-12-10T20:25:25.221Z,94414.00
2017-12-10T20:27:55.215Z,94418.50
2017-12-10T20:46:30.151Z,94408.67
2017-12-10T20:49:01.106Z,94415.30
2017-12-10T20:51:31.210Z,94407.14
2017-12-10T20:54:02.099Z,94400.64
2017-12-10T20:56:32.070Z,94412.27
2017-12-10T20:59:02.009Z,94397.52
2017-12-10T21:01:31.915Z,94390.36
2017-12-10T21:04:01.917Z,94393.93
2017-12-10T21:06:32.017Z,94407.71
2017-12-10T21:09:02.018Z,94401.13
2017-12-10T21:11:32.224Z,94395.80
2017-12-10T21:14:02.146Z,94404.94
2017-12-10T21:16:32.536Z,94400.95
2017-12-10T21:19:02.481Z,94408.45
2017-12-10T21:21:32.425Z,94389.06
2017-12-10T21:24:02.408Z,94387.98
2017-12-10T21:26:33.181Z,94408.30
2017-12-10T21:29:03.174Z,94382.14
2017-12-10T21:31:33.123Z,94384.20
2017-12-10T21:34:03.094Z,94376.11
2017-12-10T21:36:33.111Z,94378.67
2017-12-10T21:39:03.133Z,94380.65
2017-12-10T21:41:33.061Z,94390.67
2017-12-10T21:44:02.953Z,94391.50
2017-12-10T21:46:32.746Z,94382.06
2017-12-10T21:49:02.527Z,94383.78
2017-12-10T21:51:32.126Z,94392.59
2017-12-10T21:54:02.377Z,94383.37
2017-12-10T21:56:32.227Z,94379.66
2017-12-10T21:59:02.157Z,94370.41
2017-12-10T22:01:31.608Z,94360.95
2017-12-10T22:04:01.674Z,94359.64
2017-12-10T22:06:30.458Z,94371.99
2017-12-10T22:08:59.630Z,94367.94
2017-12-10T22:11:30.411Z,94368.39
2017-12-10T22:13:58.704Z,94372.44
2017-12-10T22:16:27.775Z,94381.89
2017-12-10T22:18:56.065Z,94380.89
2017-12-10T22:21:24.356Z,94381.81
2017-12-10T22:23:53.482Z,94366.42
2017-12-10T22:26:21.726Z,94374.67
2017-12-10T22:28:50.025Z,94369.51
2017-12-10T22:31:18.301Z,94382.13
2017-12-10T22:33:46.581Z,94374.41
2017-12-10T22:36:14.873Z,94383.91
2017-12-10T22:38:43.156Z,94375.94
2017-12-10T22:41:11.493Z,94371.51
2017-12-10T22:43:40.541Z,94385.34
2017-12-10T22:46:08.849Z,94389.47
2017-12-10T22:48:37.138Z,94395.73
2017-12-10T22:51:05.468Z,94382.81
2017-12-10T22:53:33.769Z,94405.02
2017-12-10T22:56:02.062Z,94398.97
2017-12-10T22:58:31.126Z,94403.20
2017-12-10T23:00:59.401Z,94406.22
2017-12-10T23:03:27.680Z,94425.16
2017-12-10T23:05:55.970Z,94427.04
2017-12-10T23:08:24.740Z,94444.28
2017-12-10T23:10:53.013Z,94454.10
2017-12-10T23:13:33.063Z,94449.81
2017-12-10T23:16:01.344Z,94457.41
2017-12-10T23:18:29.645Z,94468.56
2017-12-10T23:20:57.925Z,94488.03
2017-12-10T23:23:26.210Z,94489.50
2017-12-10T23:25:55.693Z,94486.68
2017-12-10T23:28:23.987Z,94500.81
2017-12-10T23:30:52.301Z,94497.70
2017-12-10T23:33:20.598Z,94512.64
2017-12-10T23:35:48.896Z,94529.27
2017-12-10T23:38:17.875Z,94533.44
2017-12-10T23:40:46.191Z,94542.33
2017-12-10T23:43:15.237Z,94543.63
2017-12-10T23:45:43.544Z,94553.81
2017-12-10T23:48:11.825Z,94550.77
2017-12-10T23:50:40.102Z,94558.83
2017-12-10T23:53:08.393Z,94551.39
2017-12-10T23:55:36.664Z,94557.73
2017-12-10T23:58:06.857Z,94555.44
